createdAt,value
2017-05-09T00:00:04.104Z,824.72
2017-05-09T00:00:08.417Z,824.7
2017-05-09T00:00:12.848Z,824.69
2017-05-09T00:00:17.164Z,824.7
2017-05-09T00:00:21.597Z,824.69
2017-05-09T00:00:25.786Z,824.69
2017-05-09T00:00:30.213Z,824.72
2017-05-09T00:00:34.531Z,824.72
2017-05-09T00:00:38.722Z,824.7
2017-05-09T00:00:43.151Z,824.75
2017-05-09T00:00:47.581Z,824.74
2017-05-09T00:00:52.015Z,824.7
2017-05-09T00:00:56.446Z,824.71
2017-05-09T00:01:00.875Z,824.71
2017-05-09T00:01:05.313Z,824.73
2017-05-09T00:01:09.745Z,824.72
2017-05-09T00:01:13.945Z,824.72
2017-05-09T00:01:18.374Z,824.7
2017-05-09T00:01:22.694Z,824.7
2017-05-09T00:01:27.005Z,824.71
2017-05-09T00:01:31.433Z,824.69
2017-05-09T00:01:35.866Z,824.7
2017-05-09T00:01:40.322Z,824.7
2017-05-09T00:01:44.745Z,824.69
2017-05-09T00:01:49.169Z,824.72
2017-05-09T00:01:53.603Z,824.69
2017-05-09T00:01:58.052Z,824.7
2017-05-09T00:02:02.680Z,824.71
2017-05-09T00:02:06.993Z,824.69
2017-05-09T00:02:11.432Z,824.7
2017-05-09T00:02:15.752Z,824.7
2017-05-09T00:02:19.824Z,824.73
2017-05-09T00:02:24.250Z,824.69
2017-05-09T00:02:28.681Z,824.71
2017-05-09T00:02:33.112Z,824.7
2017-05-09T00:02:37.542Z,824.71
2017-05-09T00:02:41.980Z,824.7
2017-05-09T00:02:46.421Z,824.68
2017-05-09T00:02:50.854Z,824.69
2017-05-09T00:02:55.287Z,824.68
2017-05-09T00:02:59.713Z,824.7
2017-05-09T00:03:04.137Z,824.68
2017-05-09T00:03:08.576Z,824.69
2017-05-09T00:03:12.888Z,824.69
2017-05-09T00:03:16.960Z,824.69
2017-05-09T00:03:21.269Z,824.69
2017-05-09T00:03:25.614Z,824.69
2017-05-09T00:03:30.050Z,824.66
2017-05-09T00:03:34.477Z,824.6
2017-05-09T00:03:38.795Z,824.67
2017-05-09T00:03:43.254Z,824.67
2017-05-09T00:03:47.683Z,824.68
2017-05-09T00:03:52.110Z,824.63
2017-05-09T00:03:56.543Z,824.68
2017-05-09T00:04:00.971Z,824.62
2017-05-09T00:04:05.402Z,824.63
2017-05-09T00:04:09.597Z,824.65
2017-05-09T00:04:13.797Z,824.66
2017-05-09T00:04:18.267Z,824.62
2017-05-09T00:04:22.689Z,824.66
2017-05-09T00:04:27.117Z,824.64
2017-05-09T00:04:31.556Z,824.65
2017-05-09T00:04:35.864Z,824.66
2017-05-09T00:04:40.294Z,824.66
2017-05-09T00:04:44.615Z,824.63
2017-05-09T00:04:49.039Z,824.66
2017-05-09T00:04:53.473Z,824.67
2017-05-09T00:04:57.946Z,824.63
2017-05-09T00:05:02.379Z,824.64
2017-05-09T00:05:06.687Z,824.6
2017-05-09T00:05:11.122Z,824.61
2017-05-09T00:05:15.547Z,824.62
2017-05-09T00:05:19.870Z,824.67
2017-05-09T00:05:24.296Z,824.6
2017-05-09T00:05:28.722Z,824.62
2017-05-09T00:05:33.148Z,824.61
2017-05-09T00:05:37.571Z,824.6
2017-05-09T00:05:41.759Z,824.61
2017-05-09T00:05:46.191Z,824.62
2017-05-09T00:05:50.622Z,824.64
2017-05-09T00:05:55.052Z,824.62
2017-05-09T00:05:59.491Z,824.64
2017-05-09T00:06:03.940Z,824.59
2017-05-09T00:06:08.251Z,824.61
2017-05-09T00:06:12.473Z,824.61
2017-05-09T00:06:16.894Z,824.56
2017-05-09T00:06:21.319Z,824.62
2017-05-09T00:06:25.636Z,824.57
2017-05-09T00:06:30.065Z,824.58
2017-05-09T00:06:34.379Z,824.58
2017-05-09T00:06:38.698Z,824.62
2017-05-09T00:06:43.010Z,824.6
2017-05-09T00:06:47.487Z,824.62
2017-05-09T00:06:51.919Z,824.59
2017-05-09T00:06:56.354Z,824.63
2017-05-09T00:07:00.795Z,824.6
2017-05-09T00:07:05.206Z,824.6
2017-05-09T00:07:09.640Z,824.56
2017-05-09T00:07:13.835Z,824.61
2017-05-09T00:07:18.263Z,824.6
2017-05-09T00:07:22.695Z,824.58
2017-05-09T00:07:27.022Z,824.6
2017-05-09T00:07:31.333Z,824.6
2017-05-09T00:07:35.760Z,824.61
2017-05-09T00:07:40.202Z,824.6
2017-05-09T00:07:44.638Z,824.62
2017-05-09T00:07:49.073Z,824.61
2017-05-09T00:07:53.509Z,824.53
2017-05-09T00:07:57.943Z,824.6
2017-05-09T00:08:02.402Z,824.6
2017-05-09T00:08:06.836Z,824.58
2017-05-09T00:08:11.038Z,824.61
2017-05-09T00:08:15.229Z,824.6
2017-05-09T00:08:19.661Z,824.6
2017-05-09T00:08:24.097Z,824.56
2017-05-09T00:08:28.415Z,824.56
2017-05-09T00:08:32.843Z,824.59
2017-05-09T00:08:37.268Z,824.58
2017-05-09T00:08:41.696Z,824.55
2017-05-09T00:08:46.008Z,824.57
2017-05-09T00:08:50.440Z,824.6
2017-05-09T00:08:54.866Z,824.57
2017-05-09T00:08:59.301Z,824.58
2017-05-09T00:09:03.531Z,824.61
2017-05-09T00:09:07.960Z,824.6
2017-05-09T00:09:12.273Z,824.59
2017-05-09T00:09:16.482Z,824.56
2017-05-09T00:09:20.914Z,824.57
2017-05-09T00:09:25.343Z,824.58
2017-05-09T00:09:29.779Z,824.56
2017-05-09T00:09:34.208Z,824.56
2017-05-09T00:09:38.524Z,824.58
2017-05-09T00:09:42.837Z,824.55
2017-05-09T00:09:47.261Z,824.55
2017-05-09T00:09:51.693Z,824.59
2017-05-09T00:09:55.895Z,824.58
2017-05-09T00:10:00.094Z,824.57
2017-05-09T00:10:04.404Z,824.57
2017-05-09T00:10:08.724Z,824.57
2017-05-09T00:10:13.149Z,824.54
2017-05-09T00:10:17.467Z,824.58
2017-05-09T00:10:21.907Z,824.55
2017-05-09T00:10:26.255Z,824.57
2017-05-09T00:10:30.681Z,824.58
2017-05-09T00:10:35.106Z,824.59
2017-05-09T00:10:39.545Z,824.52
2017-05-09T00:10:43.974Z,824.55
2017-05-09T00:10:48.402Z,824.59
2017-05-09T00:10:52.595Z,824.6
2017-05-09T00:10:57.024Z,824.62
2017-05-09T00:11:01.498Z,824.56
2017-05-09T00:11:05.923Z,824.56
2017-05-09T00:11:10.235Z,824.56
2017-05-09T00:11:14.433Z,824.6
2017-05-09T00:11:18.895Z,824.61
2017-05-09T00:11:23.320Z,824.59
2017-05-09T00:11:27.744Z,824.56
2017-05-09T00:11:32.172Z,824.58
2017-05-09T00:11:36.606Z,824.58
2017-05-09T00:11:40.806Z,824.61
2017-05-09T00:11:45.120Z,824.61
2017-05-09T00:11:49.547Z,824.6
2017-05-09T00:11:53.985Z,824.6
2017-05-09T00:11:58.418Z,824.54
2017-05-09T00:12:02.849Z,824.6
2017-05-09T00:12:07.164Z,824.57
2017-05-09T00:12:11.596Z,824.57
2017-05-09T00:12:16.026Z,824.59
2017-05-09T00:12:20.342Z,824.57
2017-05-09T00:12:24.779Z,824.59
2017-05-09T00:12:28.988Z,824.58
2017-05-09T00:12:33.414Z,824.57
2017-05-09T00:12:37.730Z,824.58
2017-05-09T00:12:42.163Z,824.61
2017-05-09T00:12:46.240Z,824.59
2017-05-09T00:12:50.705Z,824.62
2017-05-09T00:12:55.133Z,824.59
2017-05-09T00:12:59.586Z,824.59
2017-05-09T00:13:04.058Z,824.62
2017-05-09T00:13:08.484Z,824.62
2017-05-09T00:13:12.931Z,824.57
2017-05-09T00:13:17.359Z,824.58
2017-05-09T00:13:21.798Z,824.57
2017-05-09T00:13:26.231Z,824.57
2017-05-09T00:13:30.670Z,824.56
2017-05-09T00:13:34.868Z,824.54
2017-05-09T00:13:39.061Z,824.55
2017-05-09T00:13:43.503Z,824.59
2017-05-09T00:13:47.823Z,824.62
2017-05-09T00:13:52.252Z,824.62
2017-05-09T00:13:56.685Z,824.62
2017-05-09T00:14:01.126Z,824.65
2017-05-09T00:14:05.562Z,824.63
2017-05-09T00:14:09.920Z,824.65
2017-05-09T00:14:14.360Z,824.65
2017-05-09T00:14:18.792Z,824.61
2017-05-09T00:14:23.223Z,824.64
2017-05-09T00:14:27.669Z,824.62
2017-05-09T00:14:32.090Z,824.62
2017-05-09T00:14:36.529Z,824.61
2017-05-09T00:14:40.725Z,824.6
2017-05-09T00:14:45.155Z,824.66
2017-05-09T00:14:49.474Z,824.64
2017-05-09T00:14:53.897Z,824.72
2017-05-09T00:14:58.347Z,824.69
2017-05-09T00:15:02.938Z,824.68
2017-05-09T00:15:07.261Z,824.68
2017-05-09T00:15:11.464Z,824.7
2017-05-09T00:15:15.776Z,824.63
2017-05-09T00:15:20.206Z,824.71
2017-05-09T00:15:24.629Z,824.7
2017-05-09T00:15:29.057Z,824.74
2017-05-09T00:15:33.250Z,824.68
2017-05-09T00:15:37.558Z,824.67
2017-05-09T00:15:41.992Z,824.69
2017-05-09T00:15:46.430Z,824.72
2017-05-09T00:15:50.787Z,824.7
2017-05-09T00:15:55.217Z,824.69
2017-05-09T00:15:59.640Z,824.7
2017-05-09T00:16:04.067Z,824.71
2017-05-09T00:16:08.378Z,824.74
2017-05-09T00:16:12.799Z,824.71
2017-05-09T00:16:17.220Z,824.74
2017-05-09T00:16:21.650Z,824.71
2017-05-09T00:16:26.087Z,824.76
2017-05-09T00:16:30.271Z,824.71
2017-05-09T00:16:34.577Z,824.68
2017-05-09T00:16:39.027Z,824.68
2017-05-09T00:16:43.460Z,824.74
2017-05-09T00:16:47.896Z,824.77
2017-05-09T00:16:52.207Z,824.76
2017-05-09T00:16:56.638Z,824.77
2017-05-09T00:17:01.122Z,824.77
2017-05-09T00:17:05.744Z,824.75
2017-05-09T00:17:09.941Z,824.75
2017-05-09T00:17:14.256Z,824.77
2017-05-09T00:17:18.693Z,824.79
2017-05-09T00:17:22.889Z,824.76
2017-05-09T00:17:27.326Z,824.76
2017-05-09T00:17:31.753Z,824.78
2017-05-09T00:17:36.193Z,824.76
2017-05-09T00:17:40.629Z,824.81
2017-05-09T00:17:45.068Z,824.79
2017-05-09T00:17:49.499Z,824.78
2017-05-09T00:17:53.944Z,824.78
2017-05-09T00:17:58.376Z,824.78
2017-05-09T00:18:02.807Z,824.81
2017-05-09T00:18:07.130Z,824.79
2017-05-09T00:18:11.455Z,824.78
2017-05-09T00:18:15.659Z,824.81
2017-05-09T00:18:19.975Z,824.84
2017-05-09T00:18:24.410Z,824.79
2017-05-09T00:18:28.733Z,824.81
2017-05-09T00:18:33.170Z,824.82
2017-05-09T00:18:37.617Z,824.8
2017-05-09T00:18:42.068Z,824.79
2017-05-09T00:18:46.438Z,824.77
2017-05-09T00:18:50.522Z,824.8
2017-05-09T00:18:54.757Z,824.81
2017-05-09T00:18:59.219Z,824.78
2017-05-09T00:19:03.646Z,824.77
2017-05-09T00:19:08.078Z,824.8
2017-05-09T00:19:12.278Z,824.77
2017-05-09T00:19:16.600Z,824.81
2017-05-09T00:19:21.053Z,824.81
2017-05-09T00:19:25.368Z,824.83
2017-05-09T00:19:29.805Z,824.82
2017-05-09T00:19:34.231Z,824.83
2017-05-09T00:19:38.542Z,824.84
2017-05-09T00:19:42.994Z,824.84
2017-05-09T00:19:47.473Z,824.83
2017-05-09T00:19:51.910Z,824.84
2017-05-09T00:19:56.221Z,824.78
2017-05-09T00:20:00.658Z,824.82
2017-05-09T00:20:04.968Z,824.83
2017-05-09T00:20:09.171Z,824.86
2017-05-09T00:20:13.252Z,824.89
2017-05-09T00:20:17.564Z,824.86
2017-05-09T00:20:21.999Z,824.86
2017-05-09T00:20:26.434Z,824.88
2017-05-09T00:20:30.896Z,824.85
2017-05-09T00:20:35.208Z,824.87
2017-05-09T00:20:39.639Z,824.87
2017-05-09T00:20:44.073Z,824.85
2017-05-09T00:20:48.507Z,824.83
2017-05-09T00:20:52.935Z,824.85
2017-05-09T00:20:57.376Z,824.85
2017-05-09T00:21:01.804Z,824.82
2017-05-09T00:21:06.232Z,824.86
2017-05-09T00:21:10.541Z,824.84
2017-05-09T00:21:14.861Z,824.88
2017-05-09T00:21:19.291Z,824.83
2017-05-09T00:21:23.716Z,824.8
2017-05-09T00:21:28.140Z,824.82
2017-05-09T00:21:32.464Z,824.81
2017-05-09T00:21:36.891Z,824.85
2017-05-09T00:21:41.322Z,824.82
2017-05-09T00:21:45.746Z,824.83
2017-05-09T00:21:50.178Z,824.81
2017-05-09T00:21:54.610Z,824.84
2017-05-09T00:21:59.050Z,824.87
2017-05-09T00:22:03.485Z,824.86
2017-05-09T00:22:07.676Z,824.86
2017-05-09T00:22:11.768Z,824.86
2017-05-09T00:22:16.202Z,824.89
2017-05-09T00:22:20.635Z,824.85
2017-05-09T00:22:25.072Z,824.88
2017-05-09T00:22:29.379Z,824.87
2017-05-09T00:22:33.806Z,824.84
2017-05-09T00:22:38.246Z,824.83
2017-05-09T00:22:42.684Z,824.83
2017-05-09T00:22:47.116Z,824.84
2017-05-09T00:22:51.555Z,824.83
2017-05-09T00:22:55.924Z,824.81
2017-05-09T00:23:00.360Z,824.83
2017-05-09T00:23:04.892Z,824.81
2017-05-09T00:23:09.216Z,824.79
2017-05-09T00:23:13.540Z,824.81
2017-05-09T00:23:17.968Z,824.84
2017-05-09T00:23:22.399Z,824.83
2017-05-09T00:23:26.831Z,824.8
2017-05-09T00:23:31.141Z,824.81
2017-05-09T00:23:35.450Z,824.75
2017-05-09T00:23:39.882Z,824.79
2017-05-09T00:23:44.319Z,824.78
2017-05-09T00:23:48.750Z,824.79
2017-05-09T00:23:53.180Z,824.79
2017-05-09T00:23:57.630Z,824.75
2017-05-09T00:24:02.210Z,824.81
2017-05-09T00:24:06.633Z,824.79
2017-05-09T00:24:10.949Z,824.8
2017-05-09T00:24:15.273Z,824.8
2017-05-09T00:24:19.707Z,824.77
2017-05-09T00:24:24.020Z,824.78
2017-05-09T00:24:28.448Z,824.8
2017-05-09T00:24:32.878Z,824.79
2017-05-09T00:24:37.313Z,824.78
2017-05-09T00:24:41.620Z,824.72
2017-05-09T00:24:46.049Z,824.77
2017-05-09T00:24:50.484Z,824.74
2017-05-09T00:24:54.811Z,824.77
2017-05-09T00:24:59.174Z,824.77
2017-05-09T00:25:03.605Z,824.82
2017-05-09T00:25:08.085Z,824.81
2017-05-09T00:25:12.513Z,824.76
2017-05-09T00:25:16.585Z,824.79
2017-05-09T00:25:21.009Z,824.78
2017-05-09T00:25:25.436Z,824.74
2017-05-09T00:25:29.886Z,824.77
2017-05-09T00:25:34.314Z,824.75
2017-05-09T00:25:38.631Z,824.71
2017-05-09T00:25:42.946Z,824.71
2017-05-09T00:25:47.378Z,824.7
2017-05-09T00:25:51.818Z,824.75
2017-05-09T00:25:56.135Z,824.74
2017-05-09T00:26:00.571Z,824.77
2017-05-09T00:26:05.000Z,824.76
2017-05-09T00:26:09.342Z,824.78
2017-05-09T00:26:13.654Z,824.74
2017-05-09T00:26:18.082Z,824.75
2017-05-09T00:26:22.401Z,824.74
2017-05-09T00:26:26.827Z,824.76
2017-05-09T00:26:31.256Z,824.72
2017-05-09T00:26:35.587Z,824.75
2017-05-09T00:26:40.017Z,824.75
2017-05-09T00:26:44.450Z,824.73
2017-05-09T00:26:48.680Z,824.77
2017-05-09T00:26:53.110Z,824.75
2017-05-09T00:26:57.546Z,824.72
2017-05-09T00:27:01.858Z,824.75
2017-05-09T00:27:06.172Z,824.75
2017-05-09T00:27:10.605Z,824.73
2017-05-09T00:27:14.910Z,824.7
2017-05-09T00:27:19.346Z,824.69
2017-05-09T00:27:23.782Z,824.68
2017-05-09T00:27:28.093Z,824.72
2017-05-09T00:27:32.523Z,824.69
2017-05-09T00:27:36.950Z,824.72
2017-05-09T00:27:41.383Z,824.74
2017-05-09T00:27:45.815Z,824.75
2017-05-09T00:27:50.245Z,824.76
2017-05-09T00:27:54.681Z,824.71
2017-05-09T00:27:59.115Z,824.72
2017-05-09T00:28:03.804Z,824.7
2017-05-09T00:28:08.116Z,824.74
2017-05-09T00:28:12.541Z,824.74
2017-05-09T00:28:16.732Z,824.7
2017-05-09T00:28:21.178Z,824.72
2017-05-09T00:28:25.611Z,824.72
2017-05-09T00:28:29.931Z,824.68
2017-05-09T00:28:34.246Z,824.69
2017-05-09T00:28:38.453Z,824.67
2017-05-09T00:28:42.885Z,824.68
2017-05-09T00:28:47.314Z,824.72
2017-05-09T00:28:51.753Z,824.73
2017-05-09T00:28:56.194Z,824.71
2017-05-09T00:29:00.502Z,824.72
2017-05-09T00:29:04.944Z,824.72
2017-05-09T00:29:09.376Z,824.73
2017-05-09T00:29:13.681Z,824.71
2017-05-09T00:29:18.115Z,824.72
2017-05-09T00:29:22.558Z,824.73
2017-05-09T00:29:26.772Z,824.69
2017-05-09T00:29:31.079Z,824.73
2017-05-09T00:29:35.386Z,824.69
2017-05-09T00:29:39.823Z,824.7
2017-05-09T00:29:44.252Z,824.73
2017-05-09T00:29:48.675Z,824.73
2017-05-09T00:29:53.107Z,824.72
2017-05-09T00:29:57.579Z,824.74
2017-05-09T00:30:02.276Z,824.74
2017-05-09T00:30:06.588Z,824.76
2017-05-09T00:30:10.902Z,824.76
2017-05-09T00:30:15.209Z,824.73
2017-05-09T00:30:19.521Z,824.77
2017-05-09T00:30:23.958Z,824.74
2017-05-09T00:30:28.267Z,824.77
2017-05-09T00:30:32.577Z,824.78
2017-05-09T00:30:37.000Z,824.76
2017-05-09T00:30:41.435Z,824.75
2017-05-09T00:30:45.874Z,824.77
2017-05-09T00:30:50.311Z,824.74
2017-05-09T00:30:54.624Z,824.75
2017-05-09T00:30:59.059Z,824.76
2017-05-09T00:31:03.580Z,824.78
2017-05-09T00:31:07.777Z,824.8
2017-05-09T00:31:12.205Z,824.77
2017-05-09T00:31:16.649Z,824.74
2017-05-09T00:31:21.073Z,824.77
2017-05-09T00:31:25.498Z,824.78
2017-05-09T00:31:29.935Z,824.77
2017-05-09T00:31:34.360Z,824.77
2017-05-09T00:31:38.669Z,824.74
2017-05-09T00:31:43.102Z,824.74
2017-05-09T00:31:47.412Z,824.76
2017-05-09T00:31:51.722Z,824.79
2017-05-09T00:31:56.150Z,824.76
2017-05-09T00:32:00.597Z,824.76
2017-05-09T00:32:05.007Z,824.76
2017-05-09T00:32:09.435Z,824.77
2017-05-09T00:32:13.863Z,824.77
2017-05-09T00:32:18.183Z,824.78
2017-05-09T00:32:22.610Z,824.78
2017-05-09T00:32:26.917Z,824.73
2017-05-09T00:32:31.368Z,824.74
2017-05-09T00:32:35.607Z,824.79
2017-05-09T00:32:40.044Z,824.8
2017-05-09T00:32:44.487Z,824.79
2017-05-09T00:32:48.927Z,824.78
2017-05-09T00:32:53.359Z,824.77
2017-05-09T00:32:57.802Z,824.81
2017-05-09T00:33:02.332Z,824.78
2017-05-09T00:33:06.543Z,824.83
2017-05-09T00:33:10.853Z,824.81
2017-05-09T00:33:15.165Z,824.79
2017-05-09T00:33:19.593Z,824.79
2017-05-09T00:33:23.957Z,824.8
2017-05-09T00:33:28.395Z,824.79
2017-05-09T00:33:32.823Z,824.79
2017-05-09T00:33:37.253Z,824.76
2017-05-09T00:33:41.696Z,824.78
2017-05-09T00:33:46.133Z,824.83
2017-05-09T00:33:50.445Z,824.81
2017-05-09T00:33:54.771Z,824.81
2017-05-09T00:33:59.237Z,824.85
2017-05-09T00:34:03.671Z,824.83
2017-05-09T00:34:07.985Z,824.82
2017-05-09T00:34:12.416Z,824.85
2017-05-09T00:34:16.849Z,824.82
2017-05-09T00:34:21.289Z,824.83
2017-05-09T00:34:25.729Z,824.83
2017-05-09T00:34:30.164Z,824.86
2017-05-09T00:34:34.481Z,824.86
2017-05-09T00:34:38.910Z,824.83
2017-05-09T00:34:43.347Z,824.83
2017-05-09T00:34:47.778Z,824.79
2017-05-09T00:34:52.212Z,824.84
2017-05-09T00:34:56.665Z,824.83
2017-05-09T00:35:00.865Z,824.83
2017-05-09T00:35:05.065Z,824.83
2017-05-09T00:35:09.401Z,824.85
2017-05-09T00:35:13.595Z,824.85
2017-05-09T00:35:18.024Z,824.83
2017-05-09T00:35:22.335Z,824.87
2017-05-09T00:35:26.811Z,824.87
2017-05-09T00:35:31.239Z,824.8
2017-05-09T00:35:35.548Z,824.81
2017-05-09T00:35:39.983Z,824.81
2017-05-09T00:35:44.413Z,824.85
2017-05-09T00:35:48.727Z,824.87
2017-05-09T00:35:53.038Z,824.85
2017-05-09T00:35:57.484Z,824.88
2017-05-09T00:36:01.919Z,824.87
2017-05-09T00:36:06.353Z,824.87
2017-05-09T00:36:10.807Z,824.84
2017-05-09T00:36:15.113Z,824.91
2017-05-09T00:36:19.550Z,824.93
2017-05-09T00:36:23.868Z,824.92
2017-05-09T00:36:28.291Z,824.88
2017-05-09T00:36:32.734Z,824.86
2017-05-09T00:36:37.165Z,824.89
2017-05-09T00:36:41.478Z,824.86
2017-05-09T00:36:45.908Z,824.9
2017-05-09T00:36:49.985Z,824.87
2017-05-09T00:36:54.413Z,824.88
2017-05-09T00:36:58.846Z,824.87
2017-05-09T00:37:03.428Z,824.86
2017-05-09T00:37:07.737Z,824.88
2017-05-09T00:37:12.061Z,824.88
2017-05-09T00:37:16.256Z,824.89
2017-05-09T00:37:20.690Z,824.83
2017-05-09T00:37:25.022Z,824.87
2017-05-09T00:37:29.449Z,824.85
2017-05-09T00:37:33.883Z,824.89
2017-05-09T00:37:38.318Z,824.89
2017-05-09T00:37:42.529Z,824.9
2017-05-09T00:37:46.965Z,824.89
2017-05-09T00:37:51.394Z,824.89
2017-05-09T00:37:55.833Z,824.86
2017-05-09T00:38:00.277Z,824.82
2017-05-09T00:38:04.599Z,824.82
2017-05-09T00:38:08.686Z,824.88
2017-05-09T00:38:13.115Z,824.89
2017-05-09T00:38:17.301Z,824.88
2017-05-09T00:38:21.616Z,824.89
2017-05-09T00:38:26.102Z,824.89
2017-05-09T00:38:30.527Z,824.88
2017-05-09T00:38:34.956Z,824.89
2017-05-09T00:38:39.157Z,824.9
2017-05-09T00:38:43.602Z,824.86
2017-05-09T00:38:47.929Z,824.88
2017-05-09T00:38:52.360Z,824.87
2017-05-09T00:38:56.689Z,824.9
2017-05-09T00:39:01.118Z,824.89
2017-05-09T00:39:05.611Z,824.89
2017-05-09T00:39:09.920Z,824.92
2017-05-09T00:39:14.004Z,824.89
2017-05-09T00:39:18.443Z,824.88
2017-05-09T00:39:22.878Z,824.9
2017-05-09T00:39:27.330Z,824.93
2017-05-09T00:39:31.652Z,824.9
2017-05-09T00:39:36.092Z,824.93
2017-05-09T00:39:40.404Z,824.94
2017-05-09T00:39:44.718Z,824.94
2017-05-09T00:39:49.152Z,824.93
2017-05-09T00:39:53.604Z,824.95
2017-05-09T00:39:58.046Z,824.95
2017-05-09T00:40:02.476Z,824.87
2017-05-09T00:40:06.790Z,824.89
2017-05-09T00:40:11.132Z,824.9
2017-05-09T00:40:15.442Z,824.95
2017-05-09T00:40:19.870Z,824.97
2017-05-09T00:40:24.314Z,824.94
2017-05-09T00:40:28.739Z,824.9
2017-05-09T00:40:32.931Z,824.94
2017-05-09T00:40:37.363Z,824.93
2017-05-09T00:40:41.676Z,824.94
2017-05-09T00:40:46.113Z,824.96
2017-05-09T00:40:50.545Z,824.91
2017-05-09T00:40:54.988Z,824.98
2017-05-09T00:40:59.423Z,824.97
2017-05-09T00:41:03.847Z,824.91
2017-05-09T00:41:08.283Z,824.96
2017-05-09T00:41:12.640Z,824.98
2017-05-09T00:41:16.951Z,824.99
2017-05-09T00:41:21.379Z,824.94
2017-05-09T00:41:25.812Z,824.95
2017-05-09T00:41:30.243Z,824.9
2017-05-09T00:41:34.434Z,824.97
2017-05-09T00:41:38.632Z,824.94
2017-05-09T00:41:43.070Z,824.95
2017-05-09T00:41:47.500Z,824.96
2017-05-09T00:41:51.930Z,824.99
2017-05-09T00:41:56.373Z,824.97
2017-05-09T00:42:00.801Z,824.92
2017-05-09T00:42:05.428Z,824.93
2017-05-09T00:42:09.744Z,824.9
2017-05-09T00:42:14.063Z,824.95
2017-05-09T00:42:18.379Z,824.95
2017-05-09T00:42:22.810Z,824.98
2017-05-09T00:42:27.133Z,824.96
2017-05-09T00:42:31.556Z,824.94
2017-05-09T00:42:35.863Z,824.91
2017-05-09T00:42:40.299Z,824.93
2017-05-09T00:42:44.775Z,824.91
2017-05-09T00:42:49.200Z,824.94
2017-05-09T00:42:53.635Z,824.91
2017-05-09T00:42:57.948Z,824.88
2017-05-09T00:43:02.384Z,824.86
2017-05-09T00:43:06.814Z,824.92
2017-05-09T00:43:11.144Z,824.95
2017-05-09T00:43:15.600Z,824.96
2017-05-09T00:43:20.032Z,824.96
2017-05-09T00:43:24.470Z,824.93
2017-05-09T00:43:28.788Z,824.97
2017-05-09T00:43:33.138Z,824.93
2017-05-09T00:43:37.567Z,824.92
2017-05-09T00:43:42.011Z,824.92
2017-05-09T00:43:46.460Z,824.92
2017-05-09T00:43:50.889Z,824.95
2017-05-09T00:43:55.198Z,824.92
2017-05-09T00:43:59.515Z,824.94
2017-05-09T00:44:04.203Z,824.91
2017-05-09T00:44:08.402Z,824.92
2017-05-09T00:44:12.596Z,824.95
2017-05-09T00:44:16.911Z,824.96
2017-05-09T00:44:21.220Z,824.96
2017-05-09T00:44:25.431Z,824.96
2017-05-09T00:44:29.866Z,824.96
2017-05-09T00:44:34.181Z,824.94
2017-05-09T00:44:38.493Z,824.94
2017-05-09T00:44:42.824Z,824.92
2017-05-09T00:44:47.254Z,824.96
2017-05-09T00:44:51.677Z,824.93
2017-05-09T00:44:56.110Z,824.94
2017-05-09T00:45:00.548Z,824.93
2017-05-09T00:45:04.861Z,824.97
2017-05-09T00:45:09.058Z,824.94
2017-05-09T00:45:13.492Z,824.94
2017-05-09T00:45:17.921Z,824.93
2017-05-09T00:45:22.228Z,824.93
2017-05-09T00:45:26.659Z,824.94
2017-05-09T00:45:31.101Z,824.93
2017-05-09T00:45:35.415Z,824.93
2017-05-09T00:45:39.880Z,824.96
2017-05-09T00:45:44.311Z,824.92
2017-05-09T00:45:48.758Z,824.9
2017-05-09T00:45:53.187Z,824.92
2017-05-09T00:45:57.619Z,824.96
2017-05-09T00:46:02.151Z,824.94
2017-05-09T00:46:06.586Z,824.93
2017-05-09T00:46:10.659Z,824.91
2017-05-09T00:46:15.085Z,824.91
2017-05-09T00:46:19.391Z,824.9
2017-05-09T00:46:23.699Z,824.93
2017-05-09T00:46:28.128Z,824.92
2017-05-09T00:46:32.564Z,824.9
2017-05-09T00:46:36.995Z,824.9
2017-05-09T00:46:41.448Z,824.93
2017-05-09T00:46:45.878Z,824.9
2017-05-09T00:46:50.309Z,824.9
2017-05-09T00:46:54.746Z,824.89
2017-05-09T00:46:59.179Z,824.88
2017-05-09T00:47:03.725Z,824.87
2017-05-09T00:47:08.039Z,824.87
2017-05-09T00:47:12.347Z,824.88
2017-05-09T00:47:16.436Z,824.91
2017-05-09T00:47:20.748Z,824.9
2017-05-09T00:47:25.179Z,824.92
2017-05-09T00:47:29.608Z,824.92
2017-05-09T00:47:34.044Z,824.89
2017-05-09T00:47:38.496Z,824.9
2017-05-09T00:47:42.925Z,824.89
2017-05-09T00:47:47.354Z,824.87
2017-05-09T00:47:51.784Z,824.9
2017-05-09T00:47:56.223Z,824.86
2017-05-09T00:48:00.543Z,824.87
2017-05-09T00:48:04.979Z,824.88
2017-05-09T00:48:09.295Z,824.89
2017-05-09T00:48:13.603Z,824.89
2017-05-09T00:48:17.912Z,824.85
2017-05-09T00:48:22.223Z,824.87
2017-05-09T00:48:26.654Z,824.86
2017-05-09T00:48:31.088Z,824.87
2017-05-09T00:48:35.396Z,824.88
2017-05-09T00:48:39.828Z,824.87
2017-05-09T00:48:44.265Z,824.89
2017-05-09T00:48:48.730Z,824.87
2017-05-09T00:48:53.155Z,824.9
2017-05-09T00:48:57.590Z,824.88
2017-05-09T00:49:02.133Z,824.87
2017-05-09T00:49:06.562Z,824.88
2017-05-09T00:49:10.767Z,824.86
2017-05-09T00:49:15.201Z,824.85
2017-05-09T00:49:19.632Z,824.84
2017-05-09T00:49:24.058Z,824.82
2017-05-09T00:49:28.483Z,824.82
2017-05-09T00:49:32.945Z,824.82
2017-05-09T00:49:37.367Z,824.83
2017-05-09T00:49:41.804Z,824.84
2017-05-09T00:49:46.230Z,824.91
2017-05-09T00:49:50.662Z,824.87
2017-05-09T00:49:55.095Z,824.88
2017-05-09T00:49:59.529Z,824.88
2017-05-09T00:50:04.091Z,824.88
2017-05-09T00:50:08.294Z,824.87
2017-05-09T00:50:12.632Z,824.91
2017-05-09T00:50:17.061Z,824.89
2017-05-09T00:50:21.487Z,824.89
2017-05-09T00:50:25.806Z,824.91
2017-05-09T00:50:30.236Z,824.89
2017-05-09T00:50:34.662Z,824.89
2017-05-09T00:50:39.088Z,824.87
2017-05-09T00:50:43.525Z,824.87
2017-05-09T00:50:47.958Z,824.89
2017-05-09T00:50:52.393Z,824.89
2017-05-09T00:50:56.831Z,824.88
2017-05-09T00:51:01.260Z,824.88
2017-05-09T00:51:05.702Z,824.9
2017-05-09T00:51:10.054Z,824.87
2017-05-09T00:51:14.361Z,824.86
2017-05-09T00:51:18.794Z,824.92
2017-05-09T00:51:23.233Z,824.92
2017-05-09T00:51:27.663Z,824.91
2017-05-09T00:51:32.144Z,824.86
2017-05-09T00:51:36.570Z,824.9
2017-05-09T00:51:41.000Z,824.92
2017-05-09T00:51:45.438Z,824.9
2017-05-09T00:51:49.866Z,824.89
2017-05-09T00:51:54.297Z,824.89
2017-05-09T00:51:58.738Z,824.91
2017-05-09T00:52:03.171Z,824.91
2017-05-09T00:52:07.600Z,824.92
2017-05-09T00:52:11.687Z,824.91
2017-05-09T00:52:15.998Z,824.86
2017-05-09T00:52:20.420Z,824.88
2017-05-09T00:52:24.734Z,824.87
2017-05-09T00:52:29.168Z,824.89
2017-05-09T00:52:33.474Z,824.93
2017-05-09T00:52:37.791Z,824.85
2017-05-09T00:52:42.226Z,824.9
2017-05-09T00:52:46.665Z,824.88
2017-05-09T00:52:51.099Z,824.86
2017-05-09T00:52:55.528Z,824.9
2017-05-09T00:52:59.965Z,824.89
2017-05-09T00:53:04.597Z,824.92
2017-05-09T00:53:09.027Z,824.89
2017-05-09T00:53:13.460Z,824.91
2017-05-09T00:53:17.772Z,824.88
2017-05-09T00:53:22.086Z,824.9
2017-05-09T00:53:26.518Z,824.87
2017-05-09T00:53:30.958Z,824.86
2017-05-09T00:53:35.389Z,824.85
2017-05-09T00:53:39.841Z,824.91
2017-05-09T00:53:44.280Z,824.86
2017-05-09T00:53:48.717Z,824.9
2017-05-09T00:53:53.149Z,824.85
2017-05-09T00:53:57.587Z,824.87
2017-05-09T00:54:02.033Z,824.86
2017-05-09T00:54:06.226Z,824.87
2017-05-09T00:54:10.545Z,824.86
2017-05-09T00:54:14.864Z,824.89
2017-05-09T00:54:19.293Z,824.86
2017-05-09T00:54:23.735Z,824.84
2017-05-09T00:54:28.166Z,824.86
2017-05-09T00:54:32.595Z,824.86
2017-05-09T00:54:36.921Z,824.9
2017-05-09T00:54:41.343Z,824.83
2017-05-09T00:54:45.767Z,824.85
2017-05-09T00:54:50.201Z,824.85
2017-05-09T00:54:54.630Z,824.84
2017-05-09T00:54:58.947Z,824.83